sensor_id;sensor_type;location;lat;lon;timestamp;P1;durP1;ratioP1;P2;durP2;ratioP2
70814;SDS011;58428;49.478;10.986;2023-08-31T00:00:41;6.47;;;3.10;;
70814;SDS011;58428;49.478;10.986;2023-08-31T00:03:07;5.40;;;3.40;;
70814;SDS011;58428;49.478;10.986;2023-08-31T00:05:41;5.18;;;3.17;;
70814;SDS011;58428;49.478;10.986;2023-08-31T00:08:08;5.35;;;3.08;;
70814;SDS011;58428;49.478;10.986;2023-08-31T00:10:35;6.38;;;3.25;;
70814;SDS011;58428;49.478;10.986;2023-08-31T00:13:01;6.25;;;3.70;;
70814;SDS011;58428;49.478;10.986;2023-08-31T00:15:27;5.97;;;3.17;;
70814;SDS011;58428;49.478;10.986;2023-08-31T00:17:54;5.00;;;2.92;;
70814;SDS011;58428;49.478;10.986;2023-08-31T00:22:46;5.00;;;2.95;;
70814;SDS011;58428;49.478;10.986;2023-08-31T00:25:13;5.57;;;3.05;;
70814;SDS011;58428;49.478;10.986;2023-08-31T00:27:38;7.20;;;3.33;;
70814;SDS011;58428;49.478;10.986;2023-08-31T00:30:06;4.50;;;2.47;;
70814;SDS011;58428;49.478;10.986;2023-08-31T00:32:36;4.95;;;2.70;;
70814;SDS011;58428;49.478;10.986;2023-08-31T00:37:30;4.78;;;2.55;;
70814;SDS011;58428;49.478;10.986;2023-08-31T00:39:55;5.82;;;2.72;;
70814;SDS011;58428;49.478;10.986;2023-08-31T00:42:22;6.65;;;2.90;;
70814;SDS011;58428;49.478;10.986;2023-08-31T00:44:47;5.15;;;2.58;;
70814;SDS011;58428;49.478;10.986;2023-08-31T00:49:40;6.63;;;2.95;;
70814;SDS011;58428;49.478;10.986;2023-08-31T00:52:06;5.00;;;2.50;;
70814;SDS011;58428;49.478;10.986;2023-08-31T00:54:36;4.80;;;2.75;;
70814;SDS011;58428;49.478;10.986;2023-08-31T00:57:02;4.75;;;2.80;;
70814;SDS011;58428;49.478;10.986;2023-08-31T00:59:29;5.20;;;3.22;;
70814;SDS011;58428;49.478;10.986;2023-08-31T01:02:19;4.70;;;2.72;;
70814;SDS011;58428;49.478;10.986;2023-08-31T01:10:33;5.38;;;3.00;;
70814;SDS011;58428;49.478;10.986;2023-08-31T01:13:12;5.68;;;3.08;;
70814;SDS011;58428;49.478;10.986;2023-08-31T01:15:46;3.65;;;2.20;;
70814;SDS011;58428;49.478;10.986;2023-08-31T01:18:16;4.43;;;2.58;;
70814;SDS011;58428;49.478;10.986;2023-08-31T01:21:00;5.35;;;2.65;;
70814;SDS011;58428;49.478;10.986;2023-08-31T01:23:52;4.82;;;2.80;;
70814;SDS011;58428;49.478;10.986;2023-08-31T01:26:19;4.97;;;2.88;;
70814;SDS011;58428;49.478;10.986;2023-08-31T01:28:48;5.00;;;2.50;;
70814;SDS011;58428;49.478;10.986;2023-08-31T01:31:14;5.22;;;2.45;;
70814;SDS011;58428;49.478;10.986;2023-08-31T01:33:41;5.05;;;2.53;;
70814;SDS011;58428;49.478;10.986;2023-08-31T01:36:12;6.40;;;3.45;;
70814;SDS011;58428;49.478;10.986;2023-08-31T01:39:00;4.50;;;2.70;;
70814;SDS011;58428;49.478;10.986;2023-08-31T01:41:51;8.07;;;2.45;;
70814;SDS011;58428;49.478;10.986;2023-08-31T01:44:23;4.18;;;2.22;;
70814;SDS011;58428;49.478;10.986;2023-08-31T01:47:02;4.78;;;2.72;;
70814;SDS011;58428;49.478;10.986;2023-08-31T01:49:39;4.45;;;2.28;;
70814;SDS011;58428;49.478;10.986;2023-08-31T01:52:05;3.85;;;2.25;;
70814;SDS011;58428;49.478;10.986;2023-08-31T01:54:32;3.45;;;2.22;;
70814;SDS011;58428;49.478;10.986;2023-08-31T01:56:57;4.18;;;2.20;;
70814;SDS011;58428;49.478;10.986;2023-08-31T01:59:23;4.05;;;2.13;;
70814;SDS011;58428;49.478;10.986;2023-08-31T02:04:18;3.90;;;1.90;;
70814;SDS011;58428;49.478;10.986;2023-08-31T02:06:58;4.28;;;2.30;;
70814;SDS011;58428;49.478;10.986;2023-08-31T02:09:25;3.92;;;2.38;;
70814;SDS011;58428;49.478;10.986;2023-08-31T02:11:50;4.15;;;2.33;;
70814;SDS011;58428;49.478;10.986;2023-08-31T02:14:16;5.00;;;2.38;;
70814;SDS011;58428;49.478;10.986;2023-08-31T02:16:45;3.65;;;2.28;;
70814;SDS011;58428;49.478;10.986;2023-08-31T02:19:10;5.97;;;2.55;;
70814;SDS011;58428;49.478;10.986;2023-08-31T02:21:37;3.95;;;2.20;;
70814;SDS011;58428;49.478;10.986;2023-08-31T02:24:03;4.38;;;2.35;;
70814;SDS011;58428;49.478;10.986;2023-08-31T02:28:54;4.10;;;2.47;;
70814;SDS011;58428;49.478;10.986;2023-08-31T02:31:20;4.18;;;2.17;;
70814;SDS011;58428;49.478;10.986;2023-08-31T02:33:46;4.53;;;2.38;;
70814;SDS011;58428;49.478;10.986;2023-08-31T02:36:16;5.35;;;2.50;;
70814;SDS011;58428;49.478;10.986;2023-08-31T02:38:41;4.90;;;2.53;;
70814;SDS011;58428;49.478;10.986;2023-08-31T02:41:08;5.35;;;2.38;;
70814;SDS011;58428;49.478;10.986;2023-08-31T02:43:33;6.85;;;2.63;;
70814;SDS011;58428;49.478;10.986;2023-08-31T02:46:00;4.15;;;2.50;;
70814;SDS011;58428;49.478;10.986;2023-08-31T02:48:26;4.45;;;2.70;;
70814;SDS011;58428;49.478;10.986;2023-08-31T02:50:53;3.97;;;2.40;;
70814;SDS011;58428;49.478;10.986;2023-08-31T02:53:21;4.75;;;2.60;;
70814;SDS011;58428;49.478;10.986;2023-08-31T02:55:46;6.40;;;2.72;;
70814;SDS011;58428;49.478;10.986;2023-08-31T02:58:15;4.75;;;2.42;;
70814;SDS011;58428;49.478;10.986;2023-08-31T03:00:41;4.53;;;2.70;;
70814;SDS011;58428;49.478;10.986;2023-08-31T03:03:10;4.38;;;2.40;;
70814;SDS011;58428;49.478;10.986;2023-08-31T03:05:38;6.22;;;2.75;;
70814;SDS011;58428;49.478;10.986;2023-08-31T03:08:04;4.68;;;2.63;;
70814;SDS011;58428;49.478;10.986;2023-08-31T03:10:30;5.10;;;3.05;;
70814;SDS011;58428;49.478;10.986;2023-08-31T03:12:55;5.28;;;2.63;;
70814;SDS011;58428;49.478;10.986;2023-08-31T03:15:21;5.47;;;2.88;;
70814;SDS011;58428;49.478;10.986;2023-08-31T03:17:48;4.93;;;2.78;;
70814;SDS011;58428;49.478;10.986;2023-08-31T03:20:14;4.55;;;2.70;;
70814;SDS011;58428;49.478;10.986;2023-08-31T03:22:40;4.25;;;2.88;;
70814;SDS011;58428;49.478;10.986;2023-08-31T03:25:06;6.82;;;2.95;;
70814;SDS011;58428;49.478;10.986;2023-08-31T03:27:33;5.68;;;2.85;;
70814;SDS011;58428;49.478;10.986;2023-08-31T03:30:01;4.90;;;3.08;;
70814;SDS011;58428;49.478;10.986;2023-08-31T03:32:26;4.50;;;2.70;;
70814;SDS011;58428;49.478;10.986;2023-08-31T03:34:52;4.95;;;3.13;;
70814;SDS011;58428;49.478;10.986;2023-08-31T03:37:17;4.43;;;3.10;;
70814;SDS011;58428;49.478;10.986;2023-08-31T03:39:47;4.88;;;3.10;;
70814;SDS011;58428;49.478;10.986;2023-08-31T03:42:14;5.32;;;2.83;;
70814;SDS011;58428;49.478;10.986;2023-08-31T03:44:39;5.22;;;3.15;;
70814;SDS011;58428;49.478;10.986;2023-08-31T03:47:06;4.97;;;3.10;;
70814;SDS011;58428;49.478;10.986;2023-08-31T03:49:34;5.97;;;3.70;;
70814;SDS011;58428;49.478;10.986;2023-08-31T03:52:00;7.95;;;3.47;;
70814;SDS011;58428;49.478;10.986;2023-08-31T03:54:26;5.55;;;3.33;;
70814;SDS011;58428;49.478;10.986;2023-08-31T03:56:51;4.90;;;3.03;;
70814;SDS011;58428;49.478;10.986;2023-08-31T03:59:17;5.22;;;3.20;;
70814;SDS011;58428;49.478;10.986;2023-08-31T04:04:08;7.50;;;3.25;;
70814;SDS011;58428;49.478;10.986;2023-08-31T04:06:35;5.80;;;3.38;;
70814;SDS011;58428;49.478;10.986;2023-08-31T04:09:00;5.60;;;3.10;;
70814;SDS011;58428;49.478;10.986;2023-08-31T04:11:26;7.68;;;4.25;;
70814;SDS011;58428;49.478;10.986;2023-08-31T04:13:52;6.93;;;3.50;;
70814;SDS011;58428;49.478;10.986;2023-08-31T04:16:18;6.03;;;3.42;;
70814;SDS011;58428;49.478;10.986;2023-08-31T04:18:45;7.32;;;3.70;;
70814;SDS011;58428;49.478;10.986;2023-08-31T04:21:16;5.45;;;3.13;;
70814;SDS011;58428;49.478;10.986;2023-08-31T04:23:42;6.38;;;3.60;;
70814;SDS011;58428;49.478;10.986;2023-08-31T04:26:14;7.53;;;3.72;;
70814;SDS011;58428;49.478;10.986;2023-08-31T04:28:41;6.22;;;3.88;;
70814;SDS011;58428;49.478;10.986;2023-08-31T04:31:07;10.60;;;4.18;;
70814;SDS011;58428;49.478;10.986;2023-08-31T04:33:37;8.80;;;4.28;;
70814;SDS011;58428;49.478;10.986;2023-08-31T04:36:05;6.13;;;3.40;;
70814;SDS011;58428;49.478;10.986;2023-08-31T04:38:31;6.53;;;4.22;;
70814;SDS011;58428;49.478;10.986;2023-08-31T04:41:00;7.07;;;4.03;;
70814;SDS011;58428;49.478;10.986;2023-08-31T04:43:26;8.75;;;4.70;;
70814;SDS011;58428;49.478;10.986;2023-08-31T04:45:54;7.95;;;4.85;;
70814;SDS011;58428;49.478;10.986;2023-08-31T04:48:20;8.00;;;4.35;;
70814;SDS011;58428;49.478;10.986;2023-08-31T04:50:45;8.55;;;4.85;;
70814;SDS011;58428;49.478;10.986;2023-08-31T04:53:11;9.32;;;5.05;;
70814;SDS011;58428;49.478;10.986;2023-08-31T04:55:37;7.78;;;4.53;;
70814;SDS011;58428;49.478;10.986;2023-08-31T04:58:04;7.65;;;4.47;;
70814;SDS011;58428;49.478;10.986;2023-08-31T05:00:31;8.05;;;4.82;;
70814;SDS011;58428;49.478;10.986;2023-08-31T05:02:57;8.27;;;4.90;;
70814;SDS011;58428;49.478;10.986;2023-08-31T05:05:23;10.63;;;6.47;;
70814;SDS011;58428;49.478;10.986;2023-08-31T05:07:49;10.23;;;5.47;;
70814;SDS011;58428;49.478;10.986;2023-08-31T05:10:15;10.10;;;5.15;;
70814;SDS011;58428;49.478;10.986;2023-08-31T05:12:42;11.00;;;5.72;;
70814;SDS011;58428;49.478;10.986;2023-08-31T05:15:10;9.65;;;6.15;;
70814;SDS011;58428;49.478;10.986;2023-08-31T05:17:37;8.88;;;5.80;;
70814;SDS011;58428;49.478;10.986;2023-08-31T05:20:05;9.20;;;5.60;;
70814;SDS011;58428;49.478;10.986;2023-08-31T05:22:33;11.13;;;6.18;;
70814;SDS011;58428;49.478;10.986;2023-08-31T05:24:59;10.95;;;5.88;;
70814;SDS011;58428;49.478;10.986;2023-08-31T05:27:26;8.43;;;5.65;;
70814;SDS011;58428;49.478;10.986;2023-08-31T05:29:52;8.05;;;5.53;;
70814;SDS011;58428;49.478;10.986;2023-08-31T05:32:20;8.55;;;5.38;;
70814;SDS011;58428;49.478;10.986;2023-08-31T05:34:45;9.85;;;5.68;;
70814;SDS011;58428;49.478;10.986;2023-08-31T05:37:12;9.95;;;5.57;;
70814;SDS011;58428;49.478;10.986;2023-08-31T05:39:39;9.27;;;5.35;;
70814;SDS011;58428;49.478;10.986;2023-08-31T05:42:04;9.18;;;5.32;;
70814;SDS011;58428;49.478;10.986;2023-08-31T05:44:31;9.40;;;5.65;;
70814;SDS011;58428;49.478;10.986;2023-08-31T05:46:56;8.60;;;5.43;;
70814;SDS011;58428;49.478;10.986;2023-08-31T05:49:22;9.05;;;5.18;;
70814;SDS011;58428;49.478;10.986;2023-08-31T05:51:48;9.65;;;6.30;;
70814;SDS011;58428;49.478;10.986;2023-08-31T05:54:14;9.57;;;6.07;;
70814;SDS011;58428;49.478;10.986;2023-08-31T05:56:40;9.13;;;5.65;;
70814;SDS011;58428;49.478;10.986;2023-08-31T05:59:06;10.30;;;6.55;;
70814;SDS011;58428;49.478;10.986;2023-08-31T06:01:32;10.15;;;6.35;;
70814;SDS011;58428;49.478;10.986;2023-08-31T06:03:59;7.55;;;5.05;;
70814;SDS011;58428;49.478;10.986;2023-08-31T06:06:25;10.00;;;5.88;;
70814;SDS011;58428;49.478;10.986;2023-08-31T06:08:51;10.20;;;6.03;;
70814;SDS011;58428;49.478;10.986;2023-08-31T06:11:16;9.60;;;6.00;;
70814;SDS011;58428;49.478;10.986;2023-08-31T06:13:42;9.15;;;6.10;;
70814;SDS011;58428;49.478;10.986;2023-08-31T06:16:09;9.27;;;5.82;;
70814;SDS011;58428;49.478;10.986;2023-08-31T06:18:34;11.25;;;5.82;;
70814;SDS011;58428;49.478;10.986;2023-08-31T06:21:00;8.98;;;6.10;;
70814;SDS011;58428;49.478;10.986;2023-08-31T06:23:25;8.95;;;6.10;;
70814;SDS011;58428;49.478;10.986;2023-08-31T06:25:51;10.25;;;6.30;;
70814;SDS011;58428;49.478;10.986;2023-08-31T06:28:16;10.48;;;5.75;;
70814;SDS011;58428;49.478;10.986;2023-08-31T06:30:43;8.60;;;5.40;;
70814;SDS011;58428;49.478;10.986;2023-08-31T06:33:12;8.75;;;5.95;;
70814;SDS011;58428;49.478;10.986;2023-08-31T06:35:38;9.10;;;6.28;;
70814;SDS011;58428;49.478;10.986;2023-08-31T06:38:05;10.63;;;6.40;;
70814;SDS011;58428;49.478;10.986;2023-08-31T06:40:30;9.57;;;6.00;;
70814;SDS011;58428;49.478;10.986;2023-08-31T06:42:56;10.05;;;5.65;;
70814;SDS011;58428;49.478;10.986;2023-08-31T06:47:49;10.35;;;5.60;;
70814;SDS011;58428;49.478;10.986;2023-08-31T06:50:15;9.43;;;6.25;;
70814;SDS011;58428;49.478;10.986;2023-08-31T06:55:10;8.63;;;4.78;;
70814;SDS011;58428;49.478;10.986;2023-08-31T06:57:36;9.77;;;5.38;;
70814;SDS011;58428;49.478;10.986;2023-08-31T07:00:02;9.80;;;5.13;;
70814;SDS011;58428;49.478;10.986;2023-08-31T07:02:29;8.95;;;6.15;;
70814;SDS011;58428;49.478;10.986;2023-08-31T07:04:55;8.43;;;5.30;;
70814;SDS011;58428;49.478;10.986;2023-08-31T07:07:22;7.93;;;4.80;;
70814;SDS011;58428;49.478;10.986;2023-08-31T07:09:47;8.50;;;5.45;;
70814;SDS011;58428;49.478;10.986;2023-08-31T07:12:16;9.57;;;4.88;;
70814;SDS011;58428;49.478;10.986;2023-08-31T07:14:42;6.95;;;4.53;;
70814;SDS011;58428;49.478;10.986;2023-08-31T07:19:36;7.60;;;4.53;;
70814;SDS011;58428;49.478;10.986;2023-08-31T07:22:02;9.70;;;4.90;;
70814;SDS011;58428;49.478;10.986;2023-08-31T07:24:29;8.27;;;4.65;;
70814;SDS011;58428;49.478;10.986;2023-08-31T07:29:20;5.95;;;3.90;;
70814;SDS011;58428;49.478;10.986;2023-08-31T07:34:13;7.65;;;4.10;;
70814;SDS011;58428;49.478;10.986;2023-08-31T07:39:06;6.70;;;3.65;;
70814;SDS011;58428;49.478;10.986;2023-08-31T07:41:32;7.90;;;3.95;;
70814;SDS011;58428;49.478;10.986;2023-08-31T07:46:25;8.27;;;3.90;;
70814;SDS011;58428;49.478;10.986;2023-08-31T07:48:51;6.65;;;3.40;;
70814;SDS011;58428;49.478;10.986;2023-08-31T07:51:17;6.43;;;3.75;;
70814;SDS011;58428;49.478;10.986;2023-08-31T07:53:48;5.75;;;3.05;;
70814;SDS011;58428;49.478;10.986;2023-08-31T07:56:15;7.22;;;3.15;;
70814;SDS011;58428;49.478;10.986;2023-08-31T07:58:42;5.70;;;3.67;;
70814;SDS011;58428;49.478;10.986;2023-08-31T08:01:09;5.82;;;2.97;;
70814;SDS011;58428;49.478;10.986;2023-08-31T08:06:00;8.50;;;2.70;;
70814;SDS011;58428;49.478;10.986;2023-08-31T08:08:28;7.00;;;2.83;;
70814;SDS011;58428;49.478;10.986;2023-08-31T08:10:55;5.53;;;2.50;;
70814;SDS011;58428;49.478;10.986;2023-08-31T08:13:21;5.82;;;2.20;;
70814;SDS011;58428;49.478;10.986;2023-08-31T08:15:47;4.88;;;2.33;;
70814;SDS011;58428;49.478;10.986;2023-08-31T08:18:13;8.23;;;2.78;;
70814;SDS011;58428;49.478;10.986;2023-08-31T08:20:39;3.70;;;2.00;;
70814;SDS011;58428;49.478;10.986;2023-08-31T08:23:06;3.58;;;1.90;;
70814;SDS011;58428;49.478;10.986;2023-08-31T08:25:32;7.47;;;2.88;;
70814;SDS011;58428;49.478;10.986;2023-08-31T08:27:58;5.97;;;2.25;;
70814;SDS011;58428;49.478;10.986;2023-08-31T08:30:24;5.80;;;2.72;;
70814;SDS011;58428;49.478;10.986;2023-08-31T08:32:51;4.78;;;2.30;;
70814;SDS011;58428;49.478;10.986;2023-08-31T08:35:18;5.43;;;2.50;;
70814;SDS011;58428;49.478;10.986;2023-08-31T08:37:45;7.50;;;2.50;;
70814;SDS011;58428;49.478;10.986;2023-08-31T08:40:12;5.07;;;2.30;;
70814;SDS011;58428;49.478;10.986;2023-08-31T08:42:40;7.78;;;2.65;;
70814;SDS011;58428;49.478;10.986;2023-08-31T08:45:16;4.13;;;2.30;;
70814;SDS011;58428;49.478;10.986;2023-08-31T08:47:44;6.10;;;2.80;;
70814;SDS011;58428;49.478;10.986;2023-08-31T08:50:12;7.63;;;2.72;;
70814;SDS011;58428;49.478;10.986;2023-08-31T08:52:41;5.57;;;2.58;;
70814;SDS011;58428;49.478;10.986;2023-08-31T08:55:07;5.47;;;2.42;;
70814;SDS011;58428;49.478;10.986;2023-08-31T08:57:34;5.82;;;2.40;;
70814;SDS011;58428;49.478;10.986;2023-08-31T08:59:59;5.43;;;2.35;;
70814;SDS011;58428;49.478;10.986;2023-08-31T09:02:28;5.45;;;2.10;;
70814;SDS011;58428;49.478;10.986;2023-08-31T09:04:53;4.30;;;2.00;;
70814;SDS011;58428;49.478;10.986;2023-08-31T09:07:20;4.05;;;2.13;;
70814;SDS011;58428;49.478;10.986;2023-08-31T09:09:53;5.82;;;1.98;;
70814;SDS011;58428;49.478;10.986;2023-08-31T09:14:58;4.57;;;2.63;;
70814;SDS011;58428;49.478;10.986;2023-08-31T09:17:25;5.13;;;1.80;;
70814;SDS011;58428;49.478;10.986;2023-08-31T09:20:00;3.97;;;2.05;;
70814;SDS011;58428;49.478;10.986;2023-08-31T09:22:32;3.90;;;1.80;;
70814;SDS011;58428;49.478;10.986;2023-08-31T09:24:59;4.47;;;2.10;;
70814;SDS011;58428;49.478;10.986;2023-08-31T09:29:50;5.28;;;1.90;;
70814;SDS011;58428;49.478;10.986;2023-08-31T09:32:22;4.07;;;1.70;;
70814;SDS011;58428;49.478;10.986;2023-08-31T09:34:48;5.00;;;1.92;;
70814;SDS011;58428;49.478;10.986;2023-08-31T09:37:19;7.88;;;3.90;;
70814;SDS011;58428;49.478;10.986;2023-08-31T09:42:11;4.72;;;1.90;;
70814;SDS011;58428;49.478;10.986;2023-08-31T09:47:05;3.63;;;1.65;;
70814;SDS011;58428;49.478;10.986;2023-08-31T09:49:31;3.90;;;1.58;;
70814;SDS011;58428;49.478;10.986;2023-08-31T09:51:58;3.95;;;1.88;;
70814;SDS011;58428;49.478;10.986;2023-08-31T09:54:28;3.08;;;1.60;;
70814;SDS011;58428;49.478;10.986;2023-08-31T09:56:54;4.68;;;1.67;;
70814;SDS011;58428;49.478;10.986;2023-08-31T09:59:26;3.90;;;1.88;;
70814;SDS011;58428;49.478;10.986;2023-08-31T10:01:52;3.40;;;1.80;;
70814;SDS011;58428;49.478;10.986;2023-08-31T10:04:23;3.40;;;1.75;;
70814;SDS011;58428;49.478;10.986;2023-08-31T10:06:49;3.15;;;1.80;;
70814;SDS011;58428;49.478;10.986;2023-08-31T10:09:16;4.00;;;2.10;;
70814;SDS011;58428;49.478;10.986;2023-08-31T10:11:42;4.00;;;1.90;;
70814;SDS011;58428;49.478;10.986;2023-08-31T10:14:10;4.68;;;2.10;;
70814;SDS011;58428;49.478;10.986;2023-08-31T10:16:40;4.43;;;2.20;;
70814;SDS011;58428;49.478;10.986;2023-08-31T10:19:08;3.47;;;2.10;;
70814;SDS011;58428;49.478;10.986;2023-08-31T10:21:35;4.07;;;2.40;;
70814;SDS011;58428;49.478;10.986;2023-08-31T10:24:02;3.75;;;2.40;;
70814;SDS011;58428;49.478;10.986;2023-08-31T10:26:30;3.83;;;2.20;;
70814;SDS011;58428;49.478;10.986;2023-08-31T10:28:57;5.05;;;2.70;;
70814;SDS011;58428;49.478;10.986;2023-08-31T10:31:23;5.28;;;2.60;;
70814;SDS011;58428;49.478;10.986;2023-08-31T10:34:01;4.80;;;2.60;;
70814;SDS011;58428;49.478;10.986;2023-08-31T10:36:39;6.20;;;2.22;;
70814;SDS011;58428;49.478;10.986;2023-08-31T10:41:41;4.40;;;2.17;;
70814;SDS011;58428;49.478;10.986;2023-08-31T10:44:19;4.88;;;2.45;;
70814;SDS011;58428;49.478;10.986;2023-08-31T10:46:48;5.90;;;2.40;;
70814;SDS011;58428;49.478;10.986;2023-08-31T10:49:15;5.55;;;2.20;;
70814;SDS011;58428;49.478;10.986;2023-08-31T10:51:46;4.63;;;2.40;;
70814;SDS011;58428;49.478;10.986;2023-08-31T10:56:53;4.10;;;2.20;;
70814;SDS011;58428;49.478;10.986;2023-08-31T10:59:20;4.15;;;2.20;;
70814;SDS011;58428;49.478;10.986;2023-08-31T11:01:54;3.60;;;2.10;;
70814;SDS011;58428;49.478;10.986;2023-08-31T11:04:23;4.65;;;2.50;;
70814;SDS011;58428;49.478;10.986;2023-08-31T11:09:42;5.38;;;2.30;;
70814;SDS011;58428;49.478;10.986;2023-08-31T11:12:08;4.10;;;2.17;;
70814;SDS011;58428;49.478;10.986;2023-08-31T11:14:34;5.03;;;1.92;;
70814;SDS011;58428;49.478;10.986;2023-08-31T11:17:00;5.85;;;2.40;;
70814;SDS011;58428;49.478;10.986;2023-08-31T11:19:27;4.72;;;2.20;;
70814;SDS011;58428;49.478;10.986;2023-08-31T11:21:54;5.10;;;2.20;;
70814;SDS011;58428;49.478;10.986;2023-08-31T11:24:21;4.10;;;2.25;;
70814;SDS011;58428;49.478;10.986;2023-08-31T11:26:51;5.63;;;2.15;;
70814;SDS011;58428;49.478;10.986;2023-08-31T11:29:21;4.38;;;2.00;;
70814;SDS011;58428;49.478;10.986;2023-08-31T11:31:47;5.32;;;2.00;;
70814;SDS011;58428;49.478;10.986;2023-08-31T11:34:14;4.00;;;1.90;;
70814;SDS011;58428;49.478;10.986;2023-08-31T11:36:44;3.92;;;1.83;;
70814;SDS011;58428;49.478;10.986;2023-08-31T11:39:11;4.07;;;1.83;;
70814;SDS011;58428;49.478;10.986;2023-08-31T11:41:37;4.82;;;1.80;;
70814;SDS011;58428;49.478;10.986;2023-08-31T11:44:11;3.80;;;1.80;;
70814;SDS011;58428;49.478;10.986;2023-08-31T11:46:42;4.13;;;1.80;;
70814;SDS011;58428;49.478;10.986;2023-08-31T11:49:10;3.75;;;1.92;;
70814;SDS011;58428;49.478;10.986;2023-08-31T11:51:36;4.05;;;1.73;;
70814;SDS011;58428;49.478;10.986;2023-08-31T11:54:05;4.82;;;1.50;;
70814;SDS011;58428;49.478;10.986;2023-08-31T11:59:11;3.70;;;1.70;;
70814;SDS011;58428;49.478;10.986;2023-08-31T12:01:42;4.95;;;1.90;;
70814;SDS011;58428;49.478;10.986;2023-08-31T12:04:13;4.45;;;1.88;;
70814;SDS011;58428;49.478;10.986;2023-08-31T12:06:42;4.03;;;1.83;;
70814;SDS011;58428;49.478;10.986;2023-08-31T12:09:18;3.70;;;1.77;;
70814;SDS011;58428;49.478;10.986;2023-08-31T12:11:51;3.78;;;1.55;;
70814;SDS011;58428;49.478;10.986;2023-08-31T12:16:46;4.10;;;1.80;;
70814;SDS011;58428;49.478;10.986;2023-08-31T12:19:12;5.45;;;1.90;;
70814;SDS011;58428;49.478;10.986;2023-08-31T12:21:38;2.60;;;1.50;;
70814;SDS011;58428;49.478;10.986;2023-08-31T12:24:04;4.47;;;1.80;;
70814;SDS011;58428;49.478;10.986;2023-08-31T12:26:31;3.60;;;1.33;;
70814;SDS011;58428;49.478;10.986;2023-08-31T12:28:57;3.53;;;1.63;;
70814;SDS011;58428;49.478;10.986;2023-08-31T12:31:22;4.65;;;1.90;;
70814;SDS011;58428;49.478;10.986;2023-08-31T12:33:48;3.65;;;1.50;;
70814;SDS011;58428;49.478;10.986;2023-08-31T12:36:14;4.75;;;1.70;;
70814;SDS011;58428;49.478;10.986;2023-08-31T12:38:42;3.03;;;1.52;;
70814;SDS011;58428;49.478;10.986;2023-08-31T12:41:08;3.17;;;1.67;;
70814;SDS011;58428;49.478;10.986;2023-08-31T12:43:35;3.58;;;1.60;;
70814;SDS011;58428;49.478;10.986;2023-08-31T12:46:05;3.75;;;1.60;;
70814;SDS011;58428;49.478;10.986;2023-08-31T12:48:34;3.33;;;1.60;;
70814;SDS011;58428;49.478;10.986;2023-08-31T12:51:02;4.57;;;1.58;;
70814;SDS011;58428;49.478;10.986;2023-08-31T12:53:27;3.47;;;1.60;;
70814;SDS011;58428;49.478;10.986;2023-08-31T12:55:56;3.97;;;1.70;;
70814;SDS011;58428;49.478;10.986;2023-08-31T12:58:22;4.07;;;1.52;;
70814;SDS011;58428;49.478;10.986;2023-08-31T13:00:49;4.30;;;1.70;;
70814;SDS011;58428;49.478;10.986;2023-08-31T13:03:18;5.82;;;1.80;;
70814;SDS011;58428;49.478;10.986;2023-08-31T13:05:47;3.22;;;1.45;;
70814;SDS011;58428;49.478;10.986;2023-08-31T13:08:13;3.83;;;1.80;;
70814;SDS011;58428;49.478;10.986;2023-08-31T13:10:40;3.78;;;1.70;;
70814;SDS011;58428;49.478;10.986;2023-08-31T13:13:07;3.17;;;1.45;;
70814;SDS011;58428;49.478;10.986;2023-08-31T13:15:32;3.78;;;1.73;;
70814;SDS011;58428;49.478;10.986;2023-08-31T13:17:58;4.03;;;1.80;;
70814;SDS011;58428;49.478;10.986;2023-08-31T13:20:26;3.53;;;1.50;;
70814;SDS011;58428;49.478;10.986;2023-08-31T13:22:52;3.47;;;1.60;;
70814;SDS011;58428;49.478;10.986;2023-08-31T13:25:27;6.18;;;3.33;;
70814;SDS011;58428;49.478;10.986;2023-08-31T13:27:55;4.63;;;1.70;;
70814;SDS011;58428;49.478;10.986;2023-08-31T13:30:25;4.95;;;1.80;;
70814;SDS011;58428;49.478;10.986;2023-08-31T13:32:55;5.55;;;1.80;;
70814;SDS011;58428;49.478;10.986;2023-08-31T13:35:20;3.58;;;1.55;;
70814;SDS011;58428;49.478;10.986;2023-08-31T13:37:56;3.53;;;1.60;;
70814;SDS011;58428;49.478;10.986;2023-08-31T13:40:26;3.28;;;1.60;;
70814;SDS011;58428;49.478;10.986;2023-08-31T13:42:55;3.58;;;1.60;;
70814;SDS011;58428;49.478;10.986;2023-08-31T13:45:33;2.95;;;1.42;;
70814;SDS011;58428;49.478;10.986;2023-08-31T13:47:59;3.38;;;1.70;;
70814;SDS011;58428;49.478;10.986;2023-08-31T13:50:29;3.05;;;1.50;;
70814;SDS011;58428;49.478;10.986;2023-08-31T13:52:56;3.78;;;1.58;;
70814;SDS011;58428;49.478;10.986;2023-08-31T13:55:21;3.72;;;1.50;;
70814;SDS011;58428;49.478;10.986;2023-08-31T13:57:48;3.40;;;1.58;;
70814;SDS011;58428;49.478;10.986;2023-08-31T14:00:14;3.75;;;1.80;;
70814;SDS011;58428;49.478;10.986;2023-08-31T14:02:40;3.03;;;1.50;;
70814;SDS011;58428;49.478;10.986;2023-08-31T14:05:05;3.13;;;1.60;;
70814;SDS011;58428;49.478;10.986;2023-08-31T14:07:34;4.50;;;1.60;;
70814;SDS011;58428;49.478;10.986;2023-08-31T14:10:00;3.67;;;1.50;;
70814;SDS011;58428;49.478;10.986;2023-08-31T14:12:25;3.35;;;1.42;;
70814;SDS011;58428;49.478;10.986;2023-08-31T14:14:51;5.57;;;1.70;;
70814;SDS011;58428;49.478;10.986;2023-08-31T14:17:17;3.78;;;1.60;;
70814;SDS011;58428;49.478;10.986;2023-08-31T14:19:43;3.80;;;1.88;;
70814;SDS011;58428;49.478;10.986;2023-08-31T14:22:09;5.45;;;2.38;;
70814;SDS011;58428;49.478;10.986;2023-08-31T14:24:36;4.70;;;2.20;;
70814;SDS011;58428;49.478;10.986;2023-08-31T14:27:02;3.85;;;2.00;;
70814;SDS011;58428;49.478;10.986;2023-08-31T14:29:28;6.93;;;3.25;;
70814;SDS011;58428;49.478;10.986;2023-08-31T14:31:55;3.70;;;1.70;;
70814;SDS011;58428;49.478;10.986;2023-08-31T14:34:21;3.42;;;1.67;;
70814;SDS011;58428;49.478;10.986;2023-08-31T14:36:47;5.80;;;2.22;;
70814;SDS011;58428;49.478;10.986;2023-08-31T14:39:14;3.22;;;1.60;;
70814;SDS011;58428;49.478;10.986;2023-08-31T14:41:40;3.67;;;2.10;;
70814;SDS011;58428;49.478;10.986;2023-08-31T14:44:06;5.40;;;2.00;;
70814;SDS011;58428;49.478;10.986;2023-08-31T14:46:31;4.95;;;1.63;;
70814;SDS011;58428;49.478;10.986;2023-08-31T14:48:57;4.13;;;2.00;;
70814;SDS011;58428;49.478;10.986;2023-08-31T14:51:22;5.63;;;2.13;;
70814;SDS011;58428;49.478;10.986;2023-08-31T14:53:48;4.78;;;1.70;;
70814;SDS011;58428;49.478;10.986;2023-08-31T14:56:14;5.50;;;1.77;;
70814;SDS011;58428;49.478;10.986;2023-08-31T14:58:40;3.85;;;1.80;;
70814;SDS011;58428;49.478;10.986;2023-08-31T15:01:06;4.00;;;1.73;;
70814;SDS011;58428;49.478;10.986;2023-08-31T15:03:31;3.70;;;1.67;;
70814;SDS011;58428;49.478;10.986;2023-08-31T15:05:57;4.70;;;1.65;;
70814;SDS011;58428;49.478;10.986;2023-08-31T15:08:34;4.10;;;1.70;;
70814;SDS011;58428;49.478;10.986;2023-08-31T15:11:04;5.18;;;1.48;;
70814;SDS011;58428;49.478;10.986;2023-08-31T15:13:31;5.22;;;1.70;;
70814;SDS011;58428;49.478;10.986;2023-08-31T15:15:57;4.32;;;1.58;;
70814;SDS011;58428;49.478;10.986;2023-08-31T15:18:25;4.32;;;1.73;;
70814;SDS011;58428;49.478;10.986;2023-08-31T15:20:53;5.88;;;2.35;;
70814;SDS011;58428;49.478;10.986;2023-08-31T15:23:20;3.95;;;1.77;;
70814;SDS011;58428;49.478;10.986;2023-08-31T15:25:47;5.78;;;2.70;;
70814;SDS011;58428;49.478;10.986;2023-08-31T15:28:13;5.30;;;2.63;;
70814;SDS011;58428;49.478;10.986;2023-08-31T15:30:38;3.83;;;1.70;;
70814;SDS011;58428;49.478;10.986;2023-08-31T15:33:05;7.35;;;2.42;;
70814;SDS011;58428;49.478;10.986;2023-08-31T15:35:32;6.47;;;2.90;;
70814;SDS011;58428;49.478;10.986;2023-08-31T15:37:58;5.60;;;2.50;;